High Springs, Florida
Current Conditions -  °F | °C
As of 6:53 PM on Sunday 25 Jan 2015 (Local Time) from KGNV Reporting Station
Clear Clear  
Wind Chill: 55°   Ceiling: Unl
Heat Index: 55°   Visibility: 10mi
Dew Point: 44°   Wind: 6mph
Humidity: 67%   Direction: 220°SW
Pressure: 29.96"   Gusts: NA
Location:  29.82°N, 82.59°W
Report Text: KGNV 252353Z 22005KT 10SM CLR 13/07 A2996 RMK AO2 SLP146 T01280067 10167 20128 53003
Loading
Personal Weather Stations






























Interactive Weather Map New forecast layout! Learn more

10-Day Weather Forecast

Advertisements
Track Severe Weather on mobile